Time;durP1;ratioP1;P1;durP2;ratioP2;P2;SDS_P1;SDS_P2;PMS_P1;PMS_P2;Temp;Humidity;BMP_temperature;BMP_pressure;BME280_temperature;BME280_humidity;BME280_pressure;Samples;Min_cycle;Max_cycle;Signal;HPM_P1;HPM_P2
2021/12/15 00:03:09;;;;;;;0.00;0.00;;;5.30;85.20;;;;;;20800704;28;20478;-49
2021/12/15 00:13:13;;;;;;;0.00;0.00;;;5.70;84.30;;;;;;20817097;28;20516;-49
2021/12/15 00:23:16;;;;;;;0.00;0.00;;;5.40;83.60;;;;;;20800496;28;20041;-51
2021/12/15 00:33:19;;;;;;;0.00;0.00;;;5.30;81.30;;;;;;20783619;28;20088;-52
2021/12/15 00:43:22;;;;;;;0.00;0.00;;;5.90;76.30;;;;;;20798538;28;20091;-51
2021/12/15 00:53:25;;;;;;;0.10;0.00;;;5.60;82.70;;;;;;20722043;28;20034;-54
2021/12/15 01:03:29;;;;;;;0.10;0.00;;;5.00;82.40;;;;;;20732593;28;20026;-50
2021/12/15 01:23:58;;;;;;;0.40;0.00;;;5.40;81.60;;;;;;20792513;28;20045;-50
2021/12/15 01:34:00;;;;;;;0.25;0.00;;;5.70;81.90;;;;;;20730697;28;20083;-51
2021/12/15 01:54:13;;;;;;;0.00;0.00;;;6.10;78.50;;;;;;20810234;28;20267;-51
2021/12/15 02:04:19;;;;;;;0.00;0.00;;;6.40;77.70;;;;;;20793807;28;20115;-49
2021/12/15 02:14:21;;;;;;;2.20;0.13;;;5.90;84.10;;;;;;20825891;28;20483;-52
2021/12/15 02:24:23;;;;;;;0.65;0.00;;;5.30;84.30;;;;;;20807941;28;20037;-51
2021/12/15 02:34:44;;;;;;;0.00;0.00;;;5.60;82.70;;;;;;20807457;28;20585;-49
2021/12/15 02:44:48;;;;;;;0.00;0.00;;;6.40;80.30;;;;;;20806904;28;20064;-49
2021/12/15 02:54:52;;;;;;;0.10;0.00;;;6.10;84.60;;;;;;20806709;28;20159;-51
2021/12/15 03:05:18;;;;;;;0.00;0.00;;;6.00;84.00;;;;;;20806762;28;20088;-53
2021/12/15 03:15:30;;;;;;;0.17;0.03;;;5.60;87.70;;;;;;20787839;28;20025;-54
2021/12/15 03:25:32;;;;;;;0.05;0.00;;;5.10;88.40;;;;;;20804339;28;20037;-51
2021/12/15 03:35:47;;;;;;;0.00;0.00;;;5.00;88.40;;;;;;20803957;28;20049;-52
2021/12/15 03:45:56;;;;;;;0.00;0.00;;;5.20;90.20;;;;;;20802678;28;20042;-49
2021/12/15 03:55:59;;;;;;;0.10;0.00;;;5.10;91.30;;;;;;20802168;28;20037;-52
2021/12/15 04:06:06;;;;;;;0.00;0.00;;;4.60;92.30;;;;;;20746376;28;20467;-50
2021/12/15 04:16:15;;;;;;;0.10;0.00;;;4.60;92.50;;;;;;20719670;28;20084;-50
2021/12/15 04:26:18;;;;;;;0.15;0.00;;;4.60;92.20;;;;;;20701576;28;20049;-49
2021/12/15 04:36:27;;;;;;;0.00;0.00;;;4.70;92.80;;;;;;20759511;28;20100;-49
2021/12/15 04:46:35;;;;;;;0.00;0.00;;;4.60;93.80;;;;;;20798825;28;20475;-50
2021/12/15 04:56:38;;;;;;;0.05;0.00;;;4.20;94.40;;;;;;20798179;28;20037;-49
2021/12/15 05:06:41;;;;;;;0.00;0.00;;;4.40;94.70;;;;;;20797789;28;20453;-51
2021/12/15 05:16:45;;;;;;;0.82;0.30;;;5.00;93.20;;;;;;20749323;28;20574;-51
2021/12/15 05:26:48;;;;;;;0.82;0.30;;;4.70;91.60;;;;;;20715862;28;20100;-53
2021/12/15 05:36:52;;;;;;;0.03;0.00;;;3.60;91.70;;;;;;20739902;28;20038;-52
2021/12/15 05:46:57;;;;;;;0.15;0.00;;;3.00;95.60;;;;;;20810625;28;20204;-52
2021/12/15 05:56:59;;;;;;;0.10;0.00;;;3.40;97.00;;;;;;20812579;28;20390;-50
2021/12/15 06:07:02;;;;;;;0.52;0.20;;;3.50;96.60;;;;;;20809846;28;20037;-53
2021/12/15 06:17:11;;;;;;;0.10;0.00;;;3.20;93.80;;;;;;20792957;28;20037;-53
2021/12/15 06:27:18;;;;;;;0.45;0.15;;;2.90;95.70;;;;;;20808001;28;20037;-53
2021/12/15 06:37:22;;;;;;;0.55;0.15;;;2.70;94.10;;;;;;20807414;28;20045;-50
2021/12/15 07:08:06;;;;;;;0.17;0.10;;;2.20;98.00;;;;;;20805648;28;20038;-50
2021/12/15 07:18:11;;;;;;;0.20;0.00;;;2.40;96.70;;;;;;20804587;28;20095;-49
2021/12/15 07:28:16;;;;;;;0.28;0.10;;;2.70;97.80;;;;;;20787954;28;20037;-49
2021/12/15 07:38:19;;;;;;;0.35;0.10;;;2.90;97.90;;;;;;20804062;28;20091;-49
2021/12/15 07:48:25;;;;;;;0.32;0.10;;;3.20;97.20;;;;;;20728967;28;20069;-52
2021/12/15 07:58:29;;;;;;;0.10;0.10;;;3.50;97.30;;;;;;20643223;28;20046;-49
2021/12/15 08:08:31;;;;;;;0.10;0.10;;;3.70;97.00;;;;;;20714256;28;20034;-49
2021/12/15 08:18:34;;;;;;;0.73;0.17;;;4.00;96.70;;;;;;20720724;28;20107;-50
2021/12/15 08:28:38;;;;;;;0.52;0.20;;;4.50;94.20;;;;;;20719636;28;20486;-50
2021/12/15 08:38:44;;;;;;;0.22;0.20;;;5.10;93.00;;;;;;20779476;28;20050;-52
2021/12/15 08:48:49;;;;;;;0.50;0.20;;;5.50;92.60;;;;;;20799359;28;20107;-53
2021/12/15 08:58:53;;;;;;;0.47;0.13;;;5.90;92.10;;;;;;20802097;28;20037;-51
2021/12/15 09:08:56;;;;;;;0.10;0.10;;;6.60;90.90;;;;;;20804878;28;20103;-50
2021/12/15 09:19:00;;;;;;;0.17;0.10;;;7.30;90.10;;;;;;20678911;28;20161;-51
2021/12/15 09:29:05;;;;;;;0.20;0.00;;;7.90;89.10;;;;;;20668471;28;20092;-52
2021/12/15 09:39:12;;;;;;;0.10;0.00;;;8.20;86.80;;;;;;20750896;28;20045;-52
2021/12/15 10:20:24;;;;;;;0.47;0.22;;;10.10;84.10;;;;;;20810592;28;20559;-51
2021/12/15 10:30:49;;;;;;;0.20;0.10;;;10.60;82.50;;;;;;20809078;28;20068;-54
2021/12/15 10:41:00;;;;;;;0.30;0.20;;;11.00;80.40;;;;;;20809369;28;20045;-53
2021/12/15 10:51:32;;;;;;;0.47;0.30;;;11.10;80.10;;;;;;20808549;28;20091;-50
2021/12/15 11:01:44;;;;;;;2.45;0.50;;;11.10;81.20;;;;;;20807506;28;20632;-51
2021/12/15 11:12:15;;;;;;;0.60;0.45;;;11.50;80.10;;;;;;20805869;28;20033;-50
2021/12/15 11:22:34;;;;;;;0.80;0.40;;;11.50;81.10;;;;;;20806102;28;20482;-52
2021/12/15 11:32:46;;;;;;;1.83;0.90;;;11.30;80.70;;;;;;20804880;28;20060;-51
2021/12/15 11:42:50;;;;;;;1.40;0.73;;;11.60;79.50;;;;;;20803109;28;20380;-50
2021/12/15 11:52:52;;;;;;;2.13;1.23;;;11.50;79.80;;;;;;20802843;28;20041;-50
2021/12/15 12:02:58;;;;;;;2.13;1.08;;;11.60;79.40;;;;;;20802029;28;20041;-52
2021/12/15 12:13:09;;;;;;;2.13;1.27;;;11.50;79.80;;;;;;20801947;28;20371;-52
2021/12/15 12:23:16;;;;;;;2.57;1.40;;;11.40;80.10;;;;;;20801548;28;20033;-49
2021/12/15 12:33:22;;;;;;;1.95;1.08;;;11.20;80.80;;;;;;20800416;28;20383;-50
2021/12/15 12:43:30;;;;;;;5.03;2.20;;;11.00;81.00;;;;;;20794074;28;20049;-51
2021/12/15 13:04:11;;;;;;;3.75;2.38;;;10.30;83.00;;;;;;20817999;28;20033;-49
2021/12/15 13:14:16;;;;;;;3.65;2.22;;;9.60;85.30;;;;;;20819701;28;20100;-50
2021/12/15 13:35:01;;;;;;;3.72;2.50;;;8.20;88.90;;;;;;20816265;28;20037;-52
2021/12/15 13:45:04;;;;;;;7.93;3.28;;;7.90;91.20;;;;;;20815121;28;20111;-51
2021/12/15 13:55:28;;;;;;;6.72;3.10;;;7.60;91.00;;;;;;20813697;28;20462;-53
2021/12/15 14:05:39;;;;;;;9.48;2.90;;;7.20;92.30;;;;;;20811352;28;20060;-51
2021/12/15 14:15:45;;;;;;;6.13;3.47;;;6.70;92.40;;;;;;20771421;28;20034;-53
2021/12/15 14:25:49;;;;;;;5.53;3.55;;;6.30;93.90;;;;;;20714096;28;20038;-49
2021/12/15 14:35:54;;;;;;;8.15;4.07;;;5.90;94.40;;;;;;20743461;28;20498;-51
2021/12/15 14:45:57;;;;;;;11.25;5.38;;;5.60;95.30;;;;;;20808787;28;20068;-50
2021/12/15 14:56:00;;;;;;;9.50;5.35;;;5.10;96.20;;;;;;20808048;28;20041;-50
2021/12/15 15:06:03;;;;;;;9.98;5.22;;;4.40;97.60;;;;;;20808636;28;20072;-50
2021/12/15 15:16:07;;;;;;;7.00;3.42;;;3.90;99.80;;;;;;20807399;28;20037;-51
2021/12/15 15:26:13;;;;;;;5.97;2.63;;;3.30;99.90;;;;;;20805967;28;20037;-50
2021/12/15 15:36:23;;;;;;;5.07;2.83;;;3.00;99.90;;;;;;20805259;28;20045;-50
2021/12/15 15:46:33;;;;;;;3.42;2.10;;;2.80;99.90;;;;;;20805432;28;20041;-50
2021/12/15 15:56:41;;;;;;;4.22;2.33;;;2.60;99.90;;;;;;20805082;28;20179;-49
2021/12/15 16:06:45;;;;;;;2.92;1.77;;;2.50;99.90;;;;;;20804564;28;20038;-50
2021/12/15 16:27:07;;;;;;;4.65;2.20;;;2.30;99.90;;;;;;20802898;28;20041;-50
2021/12/15 16:37:32;;;;;;;1.33;0.85;;;2.20;99.90;;;;;;20801530;28;20041;-51
2021/12/15 16:47:35;;;;;;;2.20;0.85;;;2.30;99.90;;;;;;20800174;28;20088;-52
2021/12/15 16:57:41;;;;;;;1.70;0.60;;;2.20;99.90;;;;;;20800996;28;20037;-49
2021/12/15 17:07:48;;;;;;;0.47;0.13;;;2.00;99.90;;;;;;20666949;28;20042;-51
2021/12/15 17:17:55;;;;;;;0.40;0.20;;;1.90;99.90;;;;;;20652794;28;20105;-49
2021/12/15 17:28:04;;;;;;;0.63;0.30;;;1.90;99.90;;;;;;20653888;28;20038;-50
2021/12/15 17:38:23;;;;;;;1.30;0.50;;;2.00;99.90;;;;;;20735230;28;20114;-54
2021/12/15 17:48:27;;;;;;;0.40;0.22;;;2.10;99.90;;;;;;20788193;28;20038;-50
2021/12/15 17:58:30;;;;;;;0.32;0.10;;;1.90;99.90;;;;;;20730884;28;20369;-49
2021/12/15 18:08:36;;;;;;;1.65;0.85;;;1.80;99.90;;;;;;20713716;28;20033;-53
2021/12/15 18:18:40;;;;;;;0.80;0.30;;;1.80;99.90;;;;;;20793652;28;20037;-49
2021/12/15 18:28:43;;;;;;;1.15;0.40;;;1.80;99.90;;;;;;20810237;28;20110;-50
2021/12/15 18:38:47;;;;;;;0.30;0.00;;;1.90;99.90;;;;;;20808869;28;20099;-51
2021/12/15 18:48:52;;;;;;;0.50;0.17;;;1.70;99.90;;;;;;20721498;28;20038;-50
2021/12/15 18:58:55;;;;;;;1.25;0.50;;;1.50;99.90;;;;;;20725771;28;20105;-49
2021/12/15 19:08:58;;;;;;;0.75;0.45;;;1.60;99.90;;;;;;20802734;28;20033;-49
2021/12/15 19:19:06;;;;;;;1.80;0.70;;;1.50;99.90;;;;;;20805449;28;20338;-49
2021/12/15 19:29:10;;;;;;;0.30;0.17;;;1.30;99.90;;;;;;20805478;28;20033;-49
2021/12/15 19:39:17;;;;;;;2.60;1.30;;;1.10;99.90;;;;;;20799786;28;20111;-49
2021/12/15 19:49:21;;;;;;;2.47;0.57;;;1.20;99.90;;;;;;20803180;28;20037;-49
2021/12/15 19:59:25;;;;;;;1.63;0.70;;;1.20;99.90;;;;;;20802129;28;20033;-51
2021/12/15 20:09:31;;;;;;;0.40;0.20;;;1.20;99.90;;;;;;20802165;28;20037;-49
2021/12/15 20:19:36;;;;;;;0.32;0.10;;;0.90;99.90;;;;;;20802397;28;20034;-50
2021/12/15 20:29:41;;;;;;;0.65;0.20;;;0.80;99.90;;;;;;20801520;28;20046;-49
2021/12/15 20:39:46;;;;;;;1.83;0.10;;;0.90;99.90;;;;;;20800100;28;20049;-50
2021/12/15 20:49:50;;;;;;;0.30;0.10;;;0.90;99.90;;;;;;20800087;28;20030;-52
2021/12/15 20:59:53;;;;;;;0.25;0.20;;;0.90;99.90;;;;;;20795768;28;20038;-48
2021/12/15 21:09:57;;;;;;;0.73;0.20;;;1.00;99.90;;;;;;20721534;28;20088;-49
2021/12/15 21:20:07;;;;;;;0.40;0.20;;;1.10;99.90;;;;;;20733417;28;20123;-54
2021/12/15 21:30:21;;;;;;;0.10;0.10;;;1.00;99.90;;;;;;20732517;28;20483;-50
2021/12/15 21:40:29;;;;;;;0.10;0.10;;;0.90;99.90;;;;;;20789536;28;20048;-49
2021/12/15 21:50:35;;;;;;;0.30;0.10;;;0.90;99.90;;;;;;20812654;28;20556;-51
2021/12/15 22:00:42;;;;;;;0.60;0.20;;;0.90;99.90;;;;;;20811992;28;20041;-50
2021/12/15 22:10:45;;;;;;;0.32;0.10;;;1.00;99.90;;;;;;20795775;28;20091;-48
2021/12/15 22:20:49;;;;;;;0.30;0.20;;;1.10;99.90;;;;;;20730564;28;20073;-49
2021/12/15 22:30:58;;;;;;;0.25;0.20;;;1.10;99.90;;;;;;20727924;28;20068;-53
2021/12/15 22:41:03;;;;;;;0.57;0.20;;;1.30;99.90;;;;;;20785010;28;20106;-49
2021/12/15 22:51:06;;;;;;;0.40;0.10;;;1.40;99.90;;;;;;20808230;28;20045;-52
2021/12/15 23:01:19;;;;;;;0.80;0.17;;;1.50;99.90;;;;;;20806959;28;20037;-50
2021/12/15 23:11:25;;;;;;;0.35;0.10;;;1.70;99.90;;;;;;20806579;28;20037;-49
2021/12/15 23:21:29;;;;;;;0.20;0.10;;;1.70;99.90;;;;;;20806042;28;20099;-50
2021/12/15 23:31:33;;;;;;;0.25;0.10;;;1.40;99.90;;;;;;20804653;28;20179;-53
